createdAt,value
2019-03-28T00:01:11.263Z,103515.24
2019-03-28T00:03:41.735Z,103511.22
2019-03-28T00:06:12.285Z,103513.02
2019-03-28T00:08:42.453Z,103514.37
2019-03-28T00:11:13.059Z,103515.71
2019-03-28T00:13:43.280Z,103511.22
2019-03-28T00:16:13.420Z,103500.94
2019-03-28T00:18:43.706Z,103504.96
2019-03-28T00:21:14.344Z,103499.55
2019-03-28T00:23:53.613Z,103497.74
2019-03-28T00:26:29.976Z,103498.20
2019-03-28T00:28:55.986Z,103499.55
2019-03-28T00:31:26.220Z,103497.33
2019-03-28T00:33:56.433Z,103505.84
2019-03-28T00:36:26.985Z,103506.73
2019-03-28T00:38:57.310Z,103501.39
2019-03-28T00:41:27.751Z,103502.70
2019-03-28T00:43:58.317Z,103507.20
2019-03-28T00:46:28.672Z,103506.31
2019-03-28T00:48:58.889Z,103504.08
2019-03-28T00:51:29.444Z,103501.86
2019-03-28T00:53:59.669Z,103500.52
2019-03-28T00:56:38.082Z,103498.30
2019-03-28T00:59:01.759Z,103496.50
2019-03-28T01:01:32.011Z,103497.37
2019-03-28T01:04:02.626Z,103486.64
2019-03-28T01:06:32.803Z,103483.99
2019-03-28T01:09:04.266Z,103481.30
2019-03-28T01:11:34.625Z,103483.53
2019-03-28T01:14:04.898Z,103482.64
2019-03-28T01:16:35.119Z,103480.84
2019-03-28T01:19:05.604Z,103480.44
2019-03-28T01:21:36.159Z,103480.89
2019-03-28T01:24:06.311Z,103478.22
2019-03-28T01:26:36.459Z,103488.07
2019-03-28T01:29:06.665Z,103484.93
2019-03-28T01:31:36.875Z,103490.30
2019-03-28T01:34:07.177Z,103487.20
2019-03-28T01:36:38.236Z,103482.28
2019-03-28T01:39:08.390Z,103484.52
2019-03-28T01:41:38.550Z,103482.75
2019-03-28T01:44:08.842Z,103489.00
2019-03-28T01:46:39.137Z,103495.72
2019-03-28T01:49:09.420Z,103493.95
2019-03-28T01:51:39.692Z,103500.20
2019-03-28T01:54:10.013Z,103494.42
2019-03-28T01:56:40.161Z,103493.95
2019-03-28T01:59:10.475Z,103488.58
2019-03-28T02:01:40.727Z,103489.05
2019-03-28T02:04:11.005Z,103486.37
2019-03-28T02:06:41.221Z,103488.59
2019-03-28T02:09:11.406Z,103496.64
2019-03-28T02:11:41.753Z,103489.52
2019-03-28T02:14:12.407Z,103487.71
2019-03-28T02:16:43.076Z,103488.17
2019-03-28T02:19:13.281Z,103491.73
2019-03-28T02:21:43.618Z,103489.05
2019-03-28T02:24:13.913Z,103495.77
2019-03-28T02:26:44.352Z,103494.42
2019-03-28T02:29:14.739Z,103493.08
2019-03-28T02:31:45.137Z,103489.52
2019-03-28T02:34:15.436Z,103488.17
2019-03-28T02:36:45.792Z,103481.03
2019-03-28T02:39:16.070Z,103483.27
2019-03-28T02:41:48.236Z,103477.47
2019-03-28T02:44:18.559Z,103483.73
2019-03-28T02:46:50.640Z,103484.61
2019-03-28T02:49:21.253Z,103484.19
2019-03-28T02:51:52.136Z,103485.06
2019-03-28T02:54:24.170Z,103478.81
2019-03-28T02:56:54.622Z,103477.48
2019-03-28T02:59:25.193Z,103478.36
2019-03-28T03:01:55.599Z,103482.84
2019-03-28T03:04:26.067Z,103474.37
2019-03-28T03:06:57.750Z,103474.80
2019-03-28T03:09:27.900Z,103473.91
2019-03-28T03:12:16.389Z,103477.95
2019-03-28T03:14:47.616Z,103480.16
2019-03-28T03:17:17.861Z,103478.39
2019-03-28T03:19:50.077Z,103480.63
2019-03-28T03:22:21.091Z,103485.12
2019-03-28T03:24:53.055Z,103480.20
2019-03-28T03:27:23.809Z,103483.35
2019-03-28T03:29:54.139Z,103490.48
2019-03-28T03:32:24.357Z,103487.80
2019-03-28T03:34:54.494Z,103488.27
2019-03-28T03:37:24.553Z,103482.44
2019-03-28T03:39:56.544Z,103484.23
2019-03-28T03:42:27.636Z,103478.41
2019-03-28T03:44:57.922Z,103475.30
2019-03-28T03:47:28.811Z,103476.64
2019-03-28T03:49:58.963Z,103477.99
2019-03-28T03:52:29.388Z,103478.91
2019-03-28T03:55:01.571Z,103481.59
2019-03-28T03:57:32.094Z,103484.28
2019-03-28T04:00:03.659Z,103480.67
2019-03-28T04:02:34.456Z,103485.62
2019-03-28T04:05:05.035Z,103490.98
2019-03-28T04:07:35.400Z,103476.65
2019-03-28T04:10:06.545Z,103478.45
2019-03-28T04:12:37.029Z,103481.59
2019-03-28T04:15:07.409Z,103489.66
2019-03-28T04:17:39.907Z,103490.11
2019-03-28T04:20:12.080Z,103496.36
2019-03-28T04:22:43.276Z,103500.39
2019-03-28T04:25:14.886Z,103502.20
2019-03-28T04:27:45.097Z,103501.70
2019-03-28T04:30:15.377Z,103500.82
2019-03-28T04:32:46.743Z,103500.40
2019-03-28T04:35:17.117Z,103498.14
2019-03-28T04:37:47.246Z,103500.40
2019-03-28T04:40:17.698Z,103503.52
2019-03-28T04:42:47.930Z,103501.74
2019-03-28T04:45:18.249Z,103503.52
2019-03-28T04:47:48.468Z,103499.52
2019-03-28T04:50:18.678Z,103499.06
2019-03-28T04:52:49.270Z,103500.83
2019-03-28T04:55:21.749Z,103495.50
2019-03-28T04:57:51.872Z,103495.04
2019-03-28T05:00:22.079Z,103499.98
2019-03-28T05:02:52.339Z,103511.14
2019-03-28T05:05:22.405Z,103499.98
2019-03-28T05:07:53.022Z,103499.98
2019-03-28T05:10:24.062Z,103502.67
2019-03-28T05:12:56.057Z,103506.20
2019-03-28T05:15:28.569Z,103512.91
2019-03-28T05:17:59.076Z,103510.68
2019-03-28T05:20:29.365Z,103516.94
2019-03-28T05:22:59.614Z,103516.05
2019-03-28T05:25:29.940Z,103516.05
2019-03-28T05:28:02.075Z,103523.22
2019-03-28T05:30:32.747Z,103516.51
2019-03-28T05:33:02.938Z,103520.08
2019-03-28T05:35:33.287Z,103520.50
2019-03-28T05:38:03.595Z,103519.19
2019-03-28T05:40:34.156Z,103518.73
2019-03-28T05:43:06.248Z,103514.70
2019-03-28T05:45:38.624Z,103515.12
2019-03-28T05:48:08.853Z,103505.30
2019-03-28T05:50:39.217Z,103503.03
2019-03-28T05:53:09.619Z,103511.97
2019-03-28T05:55:39.852Z,103521.83
2019-03-28T05:58:10.134Z,103529.42
2019-03-28T06:00:40.520Z,103525.40
2019-03-28T06:03:10.868Z,103529.42
2019-03-28T06:05:41.238Z,103528.08
2019-03-28T06:08:11.502Z,103528.96
2019-03-28T06:10:43.832Z,103530.76
2019-03-28T06:13:16.593Z,103532.53
2019-03-28T06:15:46.858Z,103530.30
2019-03-28T06:18:17.123Z,103532.98
2019-03-28T06:20:47.381Z,103538.31
2019-03-28T06:23:17.734Z,103536.55
2019-03-28T06:25:47.963Z,103539.66
2019-03-28T06:28:18.606Z,103538.31
2019-03-28T06:30:50.830Z,103543.22
2019-03-28T06:33:21.039Z,103542.34
2019-03-28T06:35:51.247Z,103541.87
2019-03-28T06:38:21.545Z,103551.23
2019-03-28T06:40:52.115Z,103555.27
2019-03-28T06:43:24.222Z,103556.65
2019-03-28T06:45:56.312Z,103562.90
2019-03-28T06:48:28.505Z,103563.33
2019-03-28T06:51:00.694Z,103562.44
2019-03-28T06:53:32.736Z,103561.56
2019-03-28T06:56:05.185Z,103560.64
2019-03-28T06:58:37.335Z,103568.69
2019-03-28T07:01:09.500Z,103563.33
2019-03-28T07:03:41.870Z,103562.44
2019-03-28T07:08:54.046Z,103565.54
2019-03-28T07:11:26.076Z,103561.56
2019-03-28T07:13:58.167Z,103562.44
2019-03-28T07:16:30.317Z,103562.89
2019-03-28T07:19:18.740Z,103563.33
2019-03-28T07:22:07.093Z,103567.80
2019-03-28T07:27:18.869Z,103569.53
2019-03-28T07:29:51.579Z,103574.06
2019-03-28T07:32:23.675Z,103566.00
2019-03-28T07:34:55.702Z,103576.74
2019-03-28T07:37:44.177Z,103580.77
2019-03-28T07:40:33.476Z,103581.20
2019-03-28T07:43:03.910Z,103582.54
2019-03-28T07:45:34.541Z,103581.20
2019-03-28T07:48:05.071Z,103574.95
2019-03-28T07:50:35.421Z,103574.94
2019-03-28T07:53:06.054Z,103569.56
2019-03-28T07:55:36.263Z,103581.62
2019-03-28T07:58:07.703Z,103587.45
2019-03-28T08:00:38.410Z,103586.56
2019-03-28T08:03:08.965Z,103584.34
2019-03-28T08:05:39.274Z,103589.25
2019-03-28T08:08:09.573Z,103590.17
2019-03-28T08:10:39.837Z,103592.82
2019-03-28T08:13:10.123Z,103590.14
2019-03-28T08:15:40.411Z,103596.84
2019-03-28T08:18:10.707Z,103594.62
2019-03-28T08:20:41.000Z,103599.53
2019-03-28T08:23:11.164Z,103595.50
2019-03-28T08:25:41.641Z,103598.19
2019-03-28T08:28:12.026Z,103592.36
2019-03-28T08:30:45.473Z,103591.02
2019-03-28T08:33:15.751Z,103597.30
2019-03-28T08:35:46.020Z,103594.16
2019-03-28T08:38:16.254Z,103589.25
2019-03-28T08:40:46.352Z,103593.28
2019-03-28T08:43:16.779Z,103596.39
2019-03-28T08:45:47.030Z,103594.16
2019-03-28T08:48:17.684Z,103588.33
2019-03-28T08:50:47.916Z,103589.67
2019-03-28T08:53:18.446Z,103592.36
2019-03-28T08:55:50.614Z,103596.39
2019-03-28T08:58:22.833Z,103596.84
2019-03-28T09:00:53.300Z,103589.71
2019-03-28T09:03:23.417Z,103599.08
2019-03-28T09:05:53.625Z,103598.19
2019-03-28T09:08:25.848Z,103602.22
2019-03-28T09:10:57.973Z,103592.36
2019-03-28T09:13:28.203Z,103588.79
2019-03-28T09:16:00.377Z,103591.94
2019-03-28T09:18:30.855Z,103597.30
2019-03-28T09:21:01.644Z,103593.70
2019-03-28T09:23:32.956Z,103591.02
2019-03-28T09:26:04.507Z,103592.81
2019-03-28T09:28:36.511Z,103598.61
2019-03-28T09:31:19.307Z,103599.95
2019-03-28T09:33:40.899Z,103595.92
2019-03-28T09:36:11.415Z,103597.27
2019-03-28T09:38:43.496Z,103602.17
2019-03-28T09:41:15.567Z,103593.66
2019-03-28T09:43:55.109Z,103592.35
2019-03-28T09:46:18.362Z,103587.87
2019-03-28T09:48:50.775Z,103598.14
2019-03-28T09:51:21.585Z,103597.27
2019-03-28T09:53:54.079Z,103597.69
2019-03-28T09:56:24.270Z,103592.73
2019-03-28T09:58:54.489Z,103597.64
2019-03-28T10:01:24.762Z,103597.60
2019-03-28T10:03:55.680Z,103591.80
2019-03-28T10:06:26.198Z,103592.22
2019-03-28T10:08:56.925Z,103591.34
2019-03-28T10:11:27.122Z,103591.30
2019-03-28T10:13:57.830Z,103587.27
2019-03-28T10:16:29.121Z,103593.56
2019-03-28T10:19:00.003Z,103593.56
2019-03-28T10:21:30.233Z,103602.05
2019-03-28T10:24:00.504Z,103589.95
2019-03-28T10:26:32.395Z,103599.83
2019-03-28T10:29:02.923Z,103599.40
2019-03-28T10:31:33.328Z,103598.52
2019-03-28T10:34:03.688Z,103603.05
2019-03-28T10:36:34.058Z,103606.63
2019-03-28T10:39:05.526Z,103599.95
2019-03-28T10:41:35.767Z,103607.09
2019-03-28T10:44:05.979Z,103601.30
2019-03-28T10:46:36.114Z,103595.05
2019-03-28T10:49:06.391Z,103597.73
2019-03-28T10:51:36.618Z,103600.91
2019-03-28T10:54:19.231Z,103604.03
2019-03-28T10:56:51.140Z,103606.71
2019-03-28T10:59:22.631Z,103603.61
2019-03-28T11:01:50.230Z,103605.87
2019-03-28T11:04:14.896Z,103608.55
2019-03-28T11:06:45.299Z,103607.21
2019-03-28T11:09:17.515Z,103604.06
2019-03-28T11:11:48.320Z,103607.63
2019-03-28T11:14:18.588Z,103603.61
2019-03-28T11:16:48.850Z,103604.48
2019-03-28T11:19:19.260Z,103596.43
2019-03-28T11:21:49.708Z,103601.34
2019-03-28T11:24:20.294Z,103601.80
2019-03-28T11:26:50.564Z,103602.69
2019-03-28T11:29:20.908Z,103594.20
2019-03-28T11:31:52.701Z,103594.16
2019-03-28T11:34:23.560Z,103597.31
2019-03-28T11:36:54.204Z,103595.50
2019-03-28T11:39:24.750Z,103597.77
2019-03-28T11:41:55.132Z,103592.36
2019-03-28T11:44:25.431Z,103596.39
2019-03-28T11:46:55.729Z,103589.25
2019-03-28T11:49:27.159Z,103592.81
2019-03-28T11:51:58.131Z,103593.28
2019-03-28T11:54:28.294Z,103586.98
2019-03-28T11:56:58.624Z,103595.50
2019-03-28T11:59:29.335Z,103593.70
2019-03-28T12:02:13.820Z,103595.96
2019-03-28T12:04:31.971Z,103592.81
2019-03-28T12:07:02.153Z,103591.47
2019-03-28T12:09:32.350Z,103588.38
2019-03-28T12:12:02.855Z,103589.25
2019-03-28T12:14:34.913Z,103585.23
2019-03-28T12:17:05.543Z,103590.17
2019-03-28T12:19:37.830Z,103581.70
2019-03-28T12:22:10.083Z,103583.92
2019-03-28T12:24:42.093Z,103581.23
2019-03-28T12:27:14.215Z,103563.36
2019-03-28T12:29:46.342Z,103568.73
2019-03-28T12:32:18.443Z,103568.27
2019-03-28T12:34:50.673Z,103575.91
2019-03-28T12:37:22.879Z,103567.84
2019-03-28T12:39:55.053Z,103567.39
2019-03-28T12:45:08.450Z,103562.89
2019-03-28T12:47:42.872Z,103566.51
2019-03-28T12:50:15.398Z,103561.14
2019-03-28T12:52:47.514Z,103558.91
2019-03-28T12:55:35.963Z,103553.09
2019-03-28T12:58:24.408Z,103555.77
2019-03-28T13:00:56.527Z,103545.95
2019-03-28T13:06:08.183Z,103542.75
2019-03-28T13:08:40.248Z,103543.26
2019-03-28T13:11:12.277Z,103533.86
2019-03-28T13:13:44.748Z,103529.38
2019-03-28T13:16:33.292Z,103535.63
2019-03-28T13:19:21.949Z,103525.81
2019-03-28T13:21:52.307Z,103520.44
2019-03-28T13:24:22.504Z,103527.16
2019-03-28T13:27:10.937Z,103524.89
2019-03-28T13:29:41.364Z,103524.01
2019-03-28T13:32:11.546Z,103522.20
2019-03-28T13:34:41.964Z,103520.44
2019-03-28T13:37:12.203Z,103521.32
2019-03-28T13:39:42.841Z,103525.81
2019-03-28T13:42:13.035Z,103530.27
2019-03-28T13:44:43.458Z,103527.58
2019-03-28T13:47:13.949Z,103528.04
2019-03-28T13:49:44.122Z,103524.05
2019-03-28T13:52:14.352Z,103526.70
2019-03-28T13:54:44.985Z,103527.15
2019-03-28T13:57:15.415Z,103525.81
2019-03-28T13:59:45.627Z,103520.44
2019-03-28T14:02:16.073Z,103522.20
2019-03-28T14:04:46.815Z,103524.89
2019-03-28T14:07:17.684Z,103520.44
2019-03-28T14:09:47.916Z,103523.12
2019-03-28T14:12:18.145Z,103520.44
2019-03-28T14:14:48.376Z,103519.98
2019-03-28T14:17:19.615Z,103515.95
2019-03-28T14:19:49.971Z,103515.95
2019-03-28T14:22:20.290Z,103510.58
2019-03-28T14:24:50.631Z,103507.44
2019-03-28T14:27:20.873Z,103500.72
2019-03-28T14:29:51.108Z,103493.12
2019-03-28T14:32:21.357Z,103494.47
2019-03-28T14:34:51.517Z,103492.20
2019-03-28T14:37:22.159Z,103485.95
2019-03-28T14:39:52.345Z,103487.29
2019-03-28T14:42:22.592Z,103483.73
2019-03-28T14:44:52.819Z,103483.73
2019-03-28T14:47:23.081Z,103483.73
2019-03-28T14:49:53.509Z,103482.38
2019-03-28T14:52:23.919Z,103486.41
2019-03-28T14:54:54.252Z,103488.64
2019-03-28T14:57:24.918Z,103486.88
2019-03-28T14:59:57.409Z,103487.30
2019-03-28T15:02:27.952Z,103473.91
2019-03-28T15:04:58.327Z,103471.64
2019-03-28T15:07:29.857Z,103477.89
2019-03-28T15:10:00.455Z,103477.94
2019-03-28T15:12:30.903Z,103463.63
2019-03-28T15:15:01.098Z,103462.72
2019-03-28T15:17:31.356Z,103468.08
2019-03-28T15:20:01.563Z,103460.02
2019-03-28T15:22:32.029Z,103463.13
2019-03-28T15:25:02.492Z,103459.56
2019-03-28T15:27:33.363Z,103458.22
2019-03-28T15:30:04.302Z,103457.33
2019-03-28T15:32:34.820Z,103458.22
2019-03-28T15:35:05.607Z,103452.84
2019-03-28T15:37:37.257Z,103450.63
2019-03-28T15:40:07.544Z,103454.61
2019-03-28T15:42:38.431Z,103454.65
2019-03-28T15:45:09.107Z,103450.63
2019-03-28T15:47:39.415Z,103448.36
2019-03-28T15:50:09.841Z,103454.19
2019-03-28T15:52:40.096Z,103453.73
2019-03-28T15:55:10.715Z,103449.74
2019-03-28T15:57:41.558Z,103447.95
2019-03-28T16:00:14.026Z,103451.09
2019-03-28T16:02:45.514Z,103445.30
2019-03-28T16:05:16.720Z,103448.88
2019-03-28T16:07:46.984Z,103447.11
2019-03-28T16:10:17.355Z,103451.55
2019-03-28T16:12:47.714Z,103447.11
2019-03-28T16:15:20.070Z,103447.52
2019-03-28T16:17:50.216Z,103446.19
2019-03-28T16:20:22.285Z,103444.84
2019-03-28T16:22:53.499Z,103446.65
2019-03-28T16:25:23.707Z,103447.99
2019-03-28T16:27:53.824Z,103451.13
2019-03-28T16:30:35.029Z,103447.98
2019-03-28T16:33:05.737Z,103444.84
2019-03-28T16:35:35.838Z,103447.53
2019-03-28T16:38:05.964Z,103444.84
2019-03-28T16:40:35.966Z,103439.93
2019-03-28T16:43:06.993Z,103436.78
2019-03-28T16:45:37.506Z,103430.53
2019-03-28T16:48:07.605Z,103435.91
2019-03-28T16:50:37.987Z,103430.95
2019-03-28T16:53:09.693Z,103430.53
2019-03-28T16:55:39.989Z,103434.56
2019-03-28T16:58:10.166Z,103430.53
2019-03-28T17:03:24.100Z,103438.95
2019-03-28T17:05:54.498Z,103439.46
2019-03-28T17:08:24.582Z,103432.25
2019-03-28T17:10:55.030Z,103434.05
2019-03-28T17:13:46.226Z,103434.51
2019-03-28T17:16:33.472Z,103430.48
2019-03-28T17:19:03.997Z,103424.66
2019-03-28T17:21:35.577Z,103424.66
2019-03-28T17:24:23.673Z,103430.02
2019-03-28T17:26:53.717Z,103431.37
2019-03-28T17:29:23.727Z,103434.52
2019-03-28T17:31:55.619Z,103439.00
2019-03-28T17:34:34.628Z,103433.63
2019-03-28T17:36:58.815Z,103435.44
2019-03-28T17:39:28.970Z,103431.83
2019-03-28T17:41:59.554Z,103431.82
2019-03-28T17:44:30.425Z,103424.64
2019-03-28T17:47:00.713Z,103423.77
2019-03-28T17:49:30.733Z,103425.58
2019-03-28T17:52:01.712Z,103426.45
2019-03-28T17:54:33.691Z,103424.66
2019-03-28T17:57:03.876Z,103430.02
2019-03-28T17:59:33.915Z,103431.37
2019-03-28T18:02:04.012Z,103434.94
2019-03-28T18:04:47.178Z,103437.19
2019-03-28T18:07:08.438Z,103431.36
2019-03-28T18:09:40.375Z,103436.28
2019-03-28T18:12:13.752Z,103434.51
2019-03-28T18:14:45.790Z,103432.70
2019-03-28T18:17:17.698Z,103439.87
2019-03-28T18:19:49.628Z,103439.87
2019-03-28T18:22:21.522Z,103439.87
2019-03-28T18:24:53.493Z,103445.25
2019-03-28T18:30:05.973Z,103437.52
2019-03-28T18:32:39.540Z,103441.59
2019-03-28T18:35:12.046Z,103442.52
2019-03-28T18:37:44.774Z,103441.59
2019-03-28T18:40:32.829Z,103442.48
2019-03-28T18:43:21.838Z,103436.69
2019-03-28T18:48:36.377Z,103431.73
2019-03-28T18:51:07.688Z,103436.67
2019-03-28T18:53:39.615Z,103439.79
2019-03-28T18:56:11.650Z,103437.10
2019-03-28T18:59:00.120Z,103448.30
2019-03-28T19:01:48.624Z,103443.81
2019-03-28T19:04:21.313Z,103442.00
2019-03-28T19:09:31.767Z,103450.01
2019-03-28T19:12:19.576Z,103450.52
2019-03-28T19:14:51.665Z,103447.37
2019-03-28T19:17:24.495Z,103450.94
2019-03-28T19:23:35.517Z,103446.86
2019-03-28T19:26:10.615Z,103455.84
2019-03-28T19:31:19.541Z,103456.20
2019-03-28T19:34:08.207Z,103458.94
2019-03-28T19:36:40.159Z,103453.98
2019-03-28T19:39:12.190Z,103455.28
2019-03-28T19:42:04.085Z,103457.08
2019-03-28T19:44:50.481Z,103461.11
2019-03-28T19:47:20.916Z,103460.19
2019-03-28T19:49:51.008Z,103460.59
2019-03-28T19:52:40.121Z,103462.81
2019-03-28T19:55:13.768Z,103458.73
2019-03-28T19:57:44.106Z,103465.45
2019-03-28T20:00:14.166Z,103468.13
2019-03-28T20:02:44.240Z,103462.75
2019-03-28T20:05:14.252Z,103467.67
2019-03-28T20:07:45.831Z,103459.14
2019-03-28T20:10:16.985Z,103457.80
2019-03-28T20:12:48.378Z,103460.44
2019-03-28T20:15:18.539Z,103464.46
2019-03-28T20:17:48.954Z,103456.40
2019-03-28T20:20:19.115Z,103458.27
2019-03-28T20:22:49.300Z,103463.63
2019-03-28T20:25:19.545Z,103459.09
2019-03-28T20:27:49.935Z,103462.66
2019-03-28T20:30:20.413Z,103462.70
2019-03-28T20:32:50.584Z,103462.70
2019-03-28T20:35:22.271Z,103467.62
2019-03-28T20:37:53.173Z,103468.50
2019-03-28T20:40:23.249Z,103472.52
2019-03-28T20:42:53.333Z,103469.83
2019-03-28T20:45:23.761Z,103473.86
2019-03-28T20:47:53.866Z,103475.62
2019-03-28T20:50:24.053Z,103472.47
2019-03-28T20:52:54.244Z,103482.34
2019-03-28T20:55:25.555Z,103480.12
2019-03-28T20:57:55.731Z,103477.88
2019-03-28T21:00:38.921Z,103480.07
2019-03-28T21:03:09.134Z,103475.14
2019-03-28T21:05:39.741Z,103481.41
2019-03-28T21:08:09.823Z,103484.55
2019-03-28T21:10:39.904Z,103484.09
2019-03-28T21:13:10.091Z,103489.05
2019-03-28T21:15:40.130Z,103489.47
2019-03-28T21:18:10.195Z,103493.48
2019-03-28T21:20:40.267Z,103489.45
2019-03-28T21:23:10.341Z,103491.69
2019-03-28T21:25:40.398Z,103485.44
2019-03-28T21:28:13.704Z,103492.62
2019-03-28T21:30:47.614Z,103489.94
2019-03-28T21:33:15.151Z,103485.03
2019-03-28T21:35:45.448Z,103491.32
2019-03-28T21:38:15.504Z,103492.66
2019-03-28T21:40:45.591Z,103489.52
2019-03-28T21:43:15.670Z,103490.86
2019-03-28T21:45:45.752Z,103488.22
2019-03-28T21:48:16.927Z,103489.98
2019-03-28T21:50:47.230Z,103490.91
2019-03-28T21:53:19.796Z,103482.39
2019-03-28T21:55:54.947Z,103486.88
2019-03-28T21:58:20.873Z,103479.70
2019-03-28T22:00:51.094Z,103477.94
2019-03-28T22:03:21.548Z,103477.06
2019-03-28T22:05:51.774Z,103478.41
2019-03-28T22:08:21.847Z,103482.44
2019-03-28T22:10:52.240Z,103478.83
2019-03-28T22:13:22.327Z,103479.28
2019-03-28T22:15:52.385Z,103482.44
2019-03-28T22:18:22.457Z,103480.64
2019-03-28T22:20:52.613Z,103477.08
2019-03-28T22:23:23.385Z,103472.16
2019-03-28T22:25:53.474Z,103473.05
2019-03-28T22:28:23.716Z,103469.06
2019-03-28T22:30:53.886Z,103471.29
2019-03-28T22:33:24.531Z,103467.72
2019-03-28T22:35:54.699Z,103465.95
2019-03-28T22:38:24.794Z,103459.24
2019-03-28T22:40:54.973Z,103469.53
2019-03-28T22:43:25.048Z,103462.82
2019-03-28T22:45:55.269Z,103458.79
2019-03-28T22:48:25.431Z,103461.48
2019-03-28T22:50:55.883Z,103458.37
2019-03-28T22:53:25.945Z,103457.91
2019-03-28T22:55:55.997Z,103454.34
2019-03-28T22:58:26.335Z,103454.34
2019-03-28T23:00:57.126Z,103455.27
2019-03-28T23:03:27.596Z,103453.05
2019-03-28T23:05:57.650Z,103460.64
2019-03-28T23:08:27.708Z,103453.52
2019-03-28T23:10:57.786Z,103459.31
2019-03-28T23:13:27.856Z,103460.23
2019-03-28T23:15:57.930Z,103456.20
2019-03-28T23:18:27.995Z,103458.00
2019-03-28T23:20:58.070Z,103452.63
2019-03-28T23:23:28.178Z,103453.97
2019-03-28T23:25:58.518Z,103447.69
2019-03-28T23:28:28.615Z,103446.34
2019-03-28T23:30:58.694Z,103441.02
2019-03-28T23:33:29.028Z,103445.92
2019-03-28T23:35:59.087Z,103439.67
2019-03-28T23:38:29.142Z,103445.50
2019-03-28T23:40:59.295Z,103442.82
2019-03-28T23:43:29.353Z,103431.62
2019-03-28T23:45:59.402Z,103430.28
2019-03-28T23:48:29.481Z,103427.13
2019-03-28T23:51:00.428Z,103427.17
2019-03-28T23:53:30.507Z,103429.41
2019-03-28T23:56:00.940Z,103421.34
2019-03-28T23:58:31.071Z,103411.98
